Latest Weather Observations for Alice Springs Airport

IDD60801

Issued at 8:02 pm CST Sunday 21 December 2014 (issued every 30 minutes, with the page automatically refreshed every 10 minutes)

About weather observations | Map of weather stations | Latest weather observations for NT | Other Formats
Station Details ID: 015590 Name: ALICE SPRINGS AIRPORT Lat: -23.80 Lon: 133.89 Height: 546.0 m
Data from the previous 72 hours. | See also: Recent months at Alice Springs Airport
Date/Time
CST
Temp
°C
App
Temp
°C
Dew
Point
Rel
Hum
%
Delta-T
°C
Wind Press
QNH
hPa
Press
MSL
hPa
Rain
since 9 am
mm
Dir
 
Spd
km/h
Gust
km/h
Spd
kts
Gust
kts
21/08:00pm 33.3 29.2 2.1 14 16.2 ENE 13 15 7 8 1008.3 1004.4 0.0
21/07:30pm 34.1 30.8 4.7 16 16.0 NE 11 13 6 7 1008.0 1004.1 0.0
21/07:00pm 35.8 33.0 5.3 15 16.9 ENE 9 11 5 6 1008.0 1004.1 0.0
21/06:30pm 37.6 34.4 3.3 12 18.6 E 9 19 5 10 1007.6 1003.7 0.0
21/06:00pm 37.8 34.5 2.2 11 19.0 NE 9 17 5 9 1007.4 1003.5 0.0
21/05:30pm 38.9 36.0 2.6 10 19.6 ESE 7 13 4 7 1007.4 1003.5 0.0
21/05:00pm 38.4 33.8 1.7 10 19.5 E 15 26 8 14 1007.5 1003.6 0.0
21/04:30pm 39.0 35.1 1.2 9 20.0 N 11 17 6 9 1007.9 1004.0 0.0
21/04:00pm 38.9 35.6 2.6 10 19.6 WNW 9 15 5 8 1008.4 1004.5 0.0
21/03:30pm 38.2 33.9 1.1 10 19.5 NNW 13 22 7 12 1008.8 1004.9 0.0
21/03:00pm 38.0 33.3 1.0 10 19.4 SSW 15 26 8 14 1009.3 1005.4 0.0
21/02:30pm 38.7 34.2 2.4 10 19.5 W 15 22 8 12 1009.8 1006.0 0.0
21/02:00pm 38.2 33.9 1.1 10 19.5 NNW 13 26 7 14 1010.2 1006.3 0.0
21/01:30pm 37.4 32.6 0.2 9 19.2 NW 15 28 8 15 1010.6 1006.7 0.0
21/01:00pm 37.7 33.0 -1.9 8 19.8 N 13 26 7 14 1011.1 1007.2 0.0
21/12:00pm 35.8 30.9 1.8 12 17.8 N 17 32 9 17 1012.2 1008.3 0.0
21/11:30am 35.2 30.5 1.1 11 17.6 NNE 15 35 8 19 1012.7 1008.8 0.0
21/11:00am 34.2 30.0 1.8 13 16.8 NNE 13 22 7 12 1013.0 1009.1 0.0
21/10:30am 33.5 28.7 2.5 14 16.2 NNE 17 26 9 14 1013.2 1009.4 0.0
21/10:00am 32.7 27.4 1.8 14 15.9 NE 19 26 10 14 1013.3 1009.5 0.0
21/09:00am 31.4 26.0 2.2 15 15.0 NE 20 28 11 15 1013.5 1009.7 0.0
21/08:30am 30.3 24.8 1.6 16 14.5 ENE 20 26 11 14 1013.3 1009.5 0.0
21/07:30am 28.3 24.5 3.8 21 12.7 NE 13 17 7 9 1013.0 1009.1 0.0
21/05:30am 24.4 24.2 8.9 37 8.6 CALM 0 6 0 3 1011.8 1008.0 0.0
21/05:00am 23.2 23.6 11.1 46 6.9 CALM 0 0 0 0 1011.4 1007.6 0.0
21/04:30am 24.9 22.6 7.3 32 9.5 E 9 15 5 8 1011.0 1007.1 0.0
21/04:00am 24.8 22.4 7.2 32 9.5 NE 9 13 5 7 1010.7 1006.8 0.0
21/03:30am 25.9 22.8 5.6 27 10.7 ENE 11 11 6 6 1010.4 1006.5 0.0
21/03:00am 27.2 23.9 4.6 23 11.8 NE 11 13 6 7 1010.2 1006.3 0.0
21/02:30am 27.5 24.5 4.2 22 12.1 ENE 9 13 5 7 1010.2 1006.3 0.0
21/02:00am 25.2 22.9 7.3 32 9.7 NE 9 11 5 6 1010.2 1006.3 0.0
21/01:30am 25.4 23.0 7.0 31 9.9 ENE 9 11 5 6 1010.3 1006.4 0.0
21/01:00am 26.2 23.1 7.3 30 10.3 NE 13 15 7 8 1010.5 1006.6 0.0
21/12:30am 27.5 24.0 5.5 24 11.7 NNE 13 15 7 8 1011.2 1007.3 0.0
21/12:00am 26.3 23.5 7.1 29 10.4 ENE 11 13 6 7 1011.6 1007.8 0.0
 
Date/Time
CST
Temp
°C
App
Temp
°C
Dew
Point
Rel
Hum
%
Delta-T
°C
Wind Press
QNH
hPa
Press
MSL
hPa
Rain
since 9 am
mm
Dir
 
Spd
km/h
Gust
km/h
Spd
kts
Gust
kts
20/11:30pm 27.4 24.1 6.5 26 11.3 ESE 13 15 7 8 1011.8 1008.0 0.0
20/11:00pm 28.4 26.5 7.6 27 11.5 NE 7 9 4 5 1011.9 1008.1 0.0
20/10:30pm 28.1 25.4 7.4 27 11.4 ENE 11 13 6 7 1011.9 1008.1 0.0
20/10:00pm 28.0 25.3 7.2 27 11.4 ENE 11 13 6 7 1011.9 1008.1 0.0
20/09:30pm 28.5 25.9 7.8 27 11.5 ENE 11 13 6 7 1011.7 1007.9 0.0
20/09:00pm 29.0 25.8 6.7 24 12.2 ENE 13 15 7 8 1011.4 1007.6 0.0
20/08:30pm 29.8 26.9 6.3 22 12.8 ENE 11 11 6 6 1011.3 1007.4 0.0
20/08:00pm 30.9 27.5 5.7 20 13.7 ENE 13 15 7 8 1011.1 1007.2 0.0
20/07:30pm 32.2 28.6 5.0 18 14.7 ENE 13 15 7 8 1011.0 1007.1 0.0
20/07:00pm 33.7 29.6 4.1 15 15.9 ENE 15 22 8 12 1010.9 1007.0 0.0
20/06:30pm 34.7 30.4 3.5 14 16.7 E 15 24 8 13 1010.9 1007.0 0.0
20/06:00pm 35.3 32.2 5.5 15 16.5 ESE 11 15 6 8 1010.6 1006.7 0.0
20/05:30pm 35.6 30.0 0.1 10 18.1 ESE 19 32 10 17 1010.6 1006.7 0.0
20/05:00pm 37.0 32.4 1.3 10 18.7 SSE 15 24 8 13 1010.6 1006.7 0.0
20/04:30pm 36.4 33.1 2.6 12 18.0 ESE 9 15 5 8 1010.5 1006.6 0.0
20/04:00pm 35.7 31.1 3.6 13 17.3 ESE 17 39 9 21 1010.8 1006.9 0.0
20/03:30pm 35.8 30.9 4.2 14 17.2 E 19 28 10 15 1011.3 1007.4 0.0
20/03:00pm 35.7 31.4 3.5 13 17.3 E 15 24 8 13 1011.7 1007.9 0.0
20/02:30pm 35.6 30.7 4.0 14 17.1 ESE 19 32 10 17 1012.3 1008.4 0.0
20/02:00pm 36.8 32.4 5.0 14 17.6 SE 17 32 9 17 1012.7 1008.8 0.0
20/01:30pm 36.0 30.8 3.5 13 17.5 SE 20 30 11 16 1013.2 1009.4 0.0
20/01:00pm 34.9 31.5 5.9 16 16.1 ESE 13 28 7 15 1013.6 1009.8 0.0
20/12:30pm 34.4 30.5 7.1 18 15.4 ENE 17 32 9 17 1014.4 1010.5 0.0
20/12:00pm 33.9 29.5 6.4 18 15.3 NE 19 30 10 16 1014.7 1010.8 0.0
20/11:30am 33.5 29.8 7.8 20 14.6 NE 17 30 9 16 1015.2 1011.4 0.0
20/11:00am 33.8 29.8 8.1 20 14.7 ENE 19 28 10 15 1015.5 1011.7 0.0
20/10:30am 33.3 28.8 7.1 19 14.7 ENE 20 32 11 17 1015.8 1012.0 0.0
20/10:00am 33.1 28.4 7.9 21 14.3 E 22 35 12 19 1015.8 1012.0 0.0
20/09:30am 32.3 28.2 8.5 23 13.6 E 20 30 11 16 1015.8 1012.0 0.0
20/09:00am 31.2 29.2 8.8 25 12.8 E 9 17 5 9 1015.8 1012.0 0.0
20/08:30am 30.1 28.0 9.8 28 11.7 E 11 15 6 8 1016.0 1012.1 0.0
20/08:00am 29.2 27.7 10.7 31 10.8 ESE 9 13 5 7 1016.0 1012.1 0.0
20/07:30am 28.0 27.0 12.2 37 9.4 E 9 11 5 6 1015.6 1011.8 0.0
20/07:00am 24.7 25.0 14.5 53 6.2 SSE 6 9 3 5 1015.4 1011.6 0.0
20/06:30am 23.3 25.3 15.9 63 4.6 CALM 0 7 0 4 1015.0 1011.2 0.0
20/06:00am 21.5 22.9 14.5 64 4.2 CALM 0 0 0 0 1014.7 1010.8 0.0
20/05:30am 20.8 22.7 15.7 72 3.1 CALM 0 0 0 0 1014.4 1010.5 0.0
20/05:00am 21.5 22.1 15.4 68 3.7 SE 6 9 3 5 1014.3 1010.4 0.0
20/04:30am 21.9 22.1 14.8 64 4.3 E 7 7 4 4 1014.1 1010.2 0.0
20/04:00am 23.2 22.4 13.0 52 6.0 E 9 9 5 5 1013.8 1010.0 0.0
20/03:30am 24.2 23.5 12.0 46 7.1 ENE 7 9 4 5 1013.8 1010.0 0.0
20/03:00am 24.0 22.7 12.4 48 6.8 NE 11 13 6 7 1014.0 1010.1 0.0
20/02:30am 24.3 23.7 13.4 50 6.5 ENE 9 11 5 6 1014.2 1010.3 0.0
20/02:00am 24.6 23.9 13.2 49 6.8 NE 9 11 5 6 1014.3 1010.4 0.0
20/01:30am 24.8 23.3 13.0 47 7.0 NE 13 15 7 8 1014.6 1010.7 0.0
20/01:00am 26.1 25.3 12.8 43 7.9 NE 9 11 5 6 1014.8 1011.0 0.0
20/12:30am 26.3 25.2 12.0 41 8.4 NE 9 11 5 6 1014.9 1011.1 0.0
20/12:00am 26.0 25.1 12.7 43 7.9 NE 9 11 5 6 1014.8 1011.0 0.0
 
Date/Time
CST
Temp
°C
App
Temp
°C
Dew
Point
Rel
Hum
%
Delta-T
°C
Wind Press
QNH
hPa
Press
MSL
hPa
Rain
since 9 am
mm
Dir
 
Spd
km/h
Gust
km/h
Spd
kts
Gust
kts
19/11:30pm 26.8 25.9 12.5 41 8.5 NE 9 11 5 6 1015.1 1011.3 0.0
19/11:00pm 27.3 26.3 12.3 39 8.9 NE 9 11 5 6 1015.4 1011.6 0.0
19/10:30pm 26.8 25.6 12.7 41 8.4 ENE 11 15 6 8 1015.4 1011.6 0.0
19/10:00pm 27.1 25.5 12.7 41 8.6 ENE 13 15 7 8 1015.3 1011.5 0.0
19/09:30pm 27.7 26.7 12.2 38 9.2 ENE 9 11 5 6 1015.2 1011.4 0.0
19/09:00pm 28.4 26.5 11.8 35 9.8 ENE 13 15 7 8 1014.8 1011.0 0.0
19/08:30pm 29.4 28.2 11.5 33 10.6 E 9 11 5 6 1014.8 1011.0 0.0
19/08:00pm 29.9 28.6 11.3 31 11.0 ENE 9 11 5 6 1014.6 1010.7 0.0
19/07:30pm 31.3 29.3 10.0 26 12.4 E 11 15 6 8 1014.2 1010.3 0.0
19/07:00pm 32.7 30.9 9.5 24 13.5 ESE 9 13 5 7 1013.7 1009.9 0.0
19/06:30pm 33.3 30.6 8.9 22 14.1 E 13 17 7 9 1013.6 1009.8 0.0
19/06:00pm 33.7 29.5 8.2 20 14.6 ENE 20 33 11 18 1013.5 1009.7 0.0
19/05:30pm 34.0 30.4 8.5 20 14.7 E 17 30 9 16 1013.3 1009.5 0.0
19/05:00pm 33.5 29.4 8.7 21 14.3 E 20 32 11 17 1013.5 1009.7 0.0
19/04:30pm 33.7 29.8 8.5 21 14.5 ESE 19 35 10 19 1013.7 1009.9 0.0
19/04:00pm 33.4 30.9 9.6 23 13.9 E 13 19 7 10 1014.2 1010.3 0.0
19/03:30pm 33.7 30.3 9.3 22 14.2 NE 17 30 9 16 1014.6 1010.7 0.0
19/03:00pm 33.6 30.6 9.4 22 14.1 ESE 15 28 8 15 1015.0 1011.2 0.0
19/02:30pm 33.8 30.0 9.7 22 14.1 ENE 20 28 11 15 1015.5 1011.7 0.0
19/02:00pm 33.3 30.5 9.9 23 13.7 ENE 15 20 8 11 1015.7 1011.9 0.0
19/01:30pm 33.8 29.8 8.9 21 14.4 ESE 20 35 11 19 1016.1 1012.2 0.0
19/01:00pm 32.9 28.5 10.3 25 13.3 ESE 24 35 13 19 1016.3 1012.4 0.0
19/12:30pm 33.2 29.9 11.0 25 13.2 E 19 32 10 17 1016.8 1013.0 0.0
19/12:00pm 32.1 28.8 12.7 30 11.8 E 22 33 12 18 1017.2 1013.4 0.0
19/11:30am 31.8 28.9 12.9 31 11.5 ENE 20 35 11 19 1017.3 1013.5 0.0
19/11:00am 31.3 28.4 14.0 35 10.7 E 22 33 12 18 1017.6 1013.8 0.0
19/10:30am 30.9 28.5 13.8 35 10.5 E 19 33 10 18 1017.7 1013.9 0.0
19/10:00am 29.8 26.7 14.4 39 9.5 E 24 32 13 17 1018.0 1014.1 0.0
19/09:30am 29.0 27.9 15.2 43 8.6 ENE 15 24 8 13 1018.1 1014.3 0.0
19/09:00am 28.8 28.3 16.0 45 8.1 E 13 20 7 11 1018.0 1014.1 0.2
19/08:30am 27.2 26.8 17.2 54 6.4 ENE 15 20 8 11 1018.2 1014.4 0.2
19/08:00am 26.5 26.8 18.0 59 5.5 ENE 13 20 7 11 1017.7 1013.9 0.2
19/07:30am 25.8 27.8 19.2 67 4.3 E 7 11 4 6 1017.4 1013.6 0.2
19/07:00am 24.4 28.3 20.3 78 2.7 CALM 0 0 0 0 1017.1 1013.3 0.2
19/06:30am 22.2 26.1 20.4 89 1.2 CALM 0 0 0 0 1016.7 1012.9 0.2
19/06:00am 21.3 25.1 20.2 93 0.7 CALM 0 0 0 0 1016.4 1012.5 0.2
19/05:30am 21.1 24.9 20.2 95 0.6 CALM 0 0 0 0 1015.6 1011.8 0.2
19/05:00am 21.1 24.8 19.9 93 0.8 CALM 0 0 0 0 1015.3 1011.5 0.2
19/04:30am 21.3 25.1 20.1 93 0.8 CALM 0 0 0 0 1015.0 1011.2 0.2
19/04:00am 21.6 24.4 20.4 93 0.8 SSE 6 7 3 4 1014.7 1010.8 0.2
19/03:30am 21.9 25.2 19.9 88 1.3 E 2 7 1 4 1014.6 1010.7 0.2
19/03:00am 22.2 24.5 19.8 86 1.6 E 7 9 4 5 1014.6 1010.7 0.2
19/02:30am 22.7 25.3 20.4 87 1.5 SE 7 9 4 5 1014.5 1010.6 0.2
19/02:00am 23.2 25.6 20.0 82 2.1 ESE 7 9 4 5 1014.4 1010.5 0.2
19/01:30am 23.6 25.8 19.6 78 2.6 E 7 11 4 6 1014.5 1010.6 0.2
19/01:00am 23.7 26.0 19.9 79 2.5 ESE 7 9 4 5 1014.7 1010.8 0.2
19/12:30am 24.1 26.5 20.0 78 2.7 E 7 9 4 5 1014.9 1011.1 0.2
19/12:00am 24.6 26.3 19.4 73 3.4 E 9 11 5 6 1015.1 1011.3 0.2
 
Date/Time
CST
Temp
°C
App
Temp
°C
Dew
Point
Rel
Hum
%
Delta-T
°C
Wind Press
QNH
hPa
Press
MSL
hPa
Rain
since 9 am
mm
Dir
 
Spd
km/h
Gust
km/h
Spd
kts
Gust
kts
18/11:30pm 25.3 26.0 18.9 67 4.2 E 13 15 7 8 1015.2 1011.4 0.2
18/11:00pm 25.9 25.7 18.5 63 4.8 E 17 20 9 11 1014.9 1011.1 0.2
18/10:30pm 26.4 26.1 18.2 60 5.3 ENE 17 26 9 14 1014.8 1011.0 0.2
18/10:00pm 26.9 26.5 18.1 58 5.7 ENE 17 22 9 12 1014.5 1010.6 0.2
18/09:30pm 27.6 27.5 17.9 55 6.3 ENE 15 17 8 9 1014.1 1010.2 0.2
18/09:00pm 28.0 28.3 17.8 54 6.6 ENE 13 15 7 8 1013.7 1009.9 0.2
18/08:30pm 28.2 28.5 18.0 54 6.6 ENE 13 15 7 8 1013.4 1009.6 0.2

Other Formats:

Comma delimited format used in spreadsheet applications
http://www.bom.gov.au/fwo/IDD60801/IDD60801.94326.axf

JavaScript Object Notation format (JSON) in row-major order
http://www.bom.gov.au/fwo/IDD60801/IDD60801.94326.json